<?xml version="1.0" encoding="UTF-8" standalone="no" ?>
<gpx xmlns="http://www.topografix.com/GPX/1/1" xmlns:xsi="http://www.w3.org/2001/XMLSchema-instance" xsi:schemaLocation="http://www.topografix.com/GPX/1/1 http://www.topografix.com/GPX/1/1/gpx.xsd" version="1.1" creator="VisuGPX - https://www.visugpx.com">
  <metadata>
    <name>Mail de la PIQUE</name>
    <desc><![CDATA[Rando sans difficulté technique et peu exposée.]]></desc>
  </metadata>
  <wpt lat="42.86876" lon="0.6182">
    <ele>850</ele>
    <name><![CDATA[Baren]]></name>
  </wpt>
  <wpt lat="42.86769" lon="0.62137">
    <ele>950</ele>
    <name><![CDATA[Granges de Laprade]]></name>
  </wpt>
  <wpt lat="42.86963" lon="0.63282">
    <ele>1321</ele>
    <name><![CDATA[Cabane de la Plagnette]]></name>
  </wpt>
  <wpt lat="42.872" lon="0.63505">
    <ele>1450</ele>
    <name><![CDATA[Rocher de l Escalette]]></name>
  </wpt>
  <wpt lat="42.87246" lon="0.6436">
    <ele>1585</ele>
    <name><![CDATA[Cabane de Planet]]></name>
  </wpt>
  <wpt lat="42.87242" lon="0.65027">
    <ele>1754</ele>
    <name><![CDATA[Mail de la Pique]]></name>
  </wpt>
  <trk>
    <name><![CDATA[mail_de_la_pique]]></name>
    <trkseg>
      <trkpt lat="42.86876" lon="0.6182">
        <ele>853.5</ele>
        <time>2017-12-03T10:07:43Z</time>
      </trkpt>
      <trkpt lat="42.86879" lon="0.61822">
        <ele>853.9</ele>
        <time>2017-12-03T10:09:21Z</time>
      </trkpt>
      <trkpt lat="42.86887" lon="0.61825">
        <ele>854.3</ele>
        <time>2017-12-03T10:11:00Z</time>
      </trkpt>
      <trkpt lat="42.86896" lon="0.61824">
        <ele>855.6</ele>
        <time>2017-12-03T10:11:09Z</time>
      </trkpt>
      <trkpt lat="42.86906" lon="0.61824">
        <ele>857</ele>
        <time>2017-12-03T10:11:18Z</time>
      </trkpt>
      <trkpt lat="42.86915" lon="0.61822">
        <ele>857.7</ele>
        <time>2017-12-03T10:11:26Z</time>
      </trkpt>
      <trkpt lat="42.86919" lon="0.61831">
        <ele>859.7</ele>
        <time>2017-12-03T10:11:37Z</time>
      </trkpt>
      <trkpt lat="42.8691" lon="0.61839">
        <ele>861.3</ele>
        <time>2017-12-03T10:11:50Z</time>
      </trkpt>
      <trkpt lat="42.86901" lon="0.61846">
        <ele>862.9</ele>
        <time>2017-12-03T10:12:02Z</time>
      </trkpt>
      <trkpt lat="42.86895" lon="0.61859">
        <ele>864.5</ele>
        <time>2017-12-03T10:12:14Z</time>
      </trkpt>
      <trkpt lat="42.8689" lon="0.6187">
        <ele>866.4</ele>
        <time>2017-12-03T10:12:25Z</time>
      </trkpt>
      <trkpt lat="42.86886" lon="0.61883">
        <ele>869.2</ele>
        <time>2017-12-03T10:12:40Z</time>
      </trkpt>
      <trkpt lat="42.86881" lon="0.61894">
        <ele>872.4</ele>
        <time>2017-12-03T10:12:57Z</time>
      </trkpt>
      <trkpt lat="42.86876" lon="0.61906">
        <ele>874.6</ele>
        <time>2017-12-03T10:13:13Z</time>
      </trkpt>
      <trkpt lat="42.86873" lon="0.61918">
        <ele>876</ele>
        <time>2017-12-03T10:13:39Z</time>
      </trkpt>
      <trkpt lat="42.86869" lon="0.61933">
        <ele>877.9</ele>
        <time>2017-12-03T10:13:54Z</time>
      </trkpt>
      <trkpt lat="42.86865" lon="0.61947">
        <ele>879.6</ele>
        <time>2017-12-03T10:14:09Z</time>
      </trkpt>
      <trkpt lat="42.8686" lon="0.6196">
        <ele>881</ele>
        <time>2017-12-03T10:14:21Z</time>
      </trkpt>
      <trkpt lat="42.86849" lon="0.61959">
        <ele>882.7</ele>
        <time>2017-12-03T10:14:37Z</time>
      </trkpt>
      <trkpt lat="42.86838" lon="0.61954">
        <ele>883.7</ele>
        <time>2017-12-03T10:14:50Z</time>
      </trkpt>
      <trkpt lat="42.86829" lon="0.61949">
        <ele>885.5</ele>
        <time>2017-12-03T10:15:06Z</time>
      </trkpt>
      <trkpt lat="42.8682" lon="0.61945">
        <ele>886.9</ele>
        <time>2017-12-03T10:15:20Z</time>
      </trkpt>
      <trkpt lat="42.86812" lon="0.61948">
        <ele>888.1</ele>
        <time>2017-12-03T10:15:34Z</time>
      </trkpt>
      <trkpt lat="42.86802" lon="0.61949">
        <ele>888.9</ele>
        <time>2017-12-03T10:15:47Z</time>
      </trkpt>
      <trkpt lat="42.86792" lon="0.61951">
        <ele>889.4</ele>
        <time>2017-12-03T10:16:00Z</time>
      </trkpt>
      <trkpt lat="42.86782" lon="0.61949">
        <ele>890.4</ele>
        <time>2017-12-03T10:16:15Z</time>
      </trkpt>
      <trkpt lat="42.86772" lon="0.61946">
        <ele>891.5</ele>
        <time>2017-12-03T10:16:31Z</time>
      </trkpt>
      <trkpt lat="42.86762" lon="0.61945">
        <ele>892.7</ele>
        <time>2017-12-03T10:16:47Z</time>
      </trkpt>
      <trkpt lat="42.86753" lon="0.61945">
        <ele>894.7</ele>
        <time>2017-12-03T10:17:06Z</time>
      </trkpt>
      <trkpt lat="42.86747" lon="0.6195">
        <ele>896.8</ele>
        <time>2017-12-03T10:17:24Z</time>
      </trkpt>
      <trkpt lat="42.86749" lon="0.61965">
        <ele>899</ele>
        <time>2017-12-03T10:17:43Z</time>
      </trkpt>
      <trkpt lat="42.86743" lon="0.61977">
        <ele>901.4</ele>
        <time>2017-12-03T10:18:03Z</time>
      </trkpt>
      <trkpt lat="42.86737" lon="0.61986">
        <ele>902.4</ele>
        <time>2017-12-03T10:18:36Z</time>
      </trkpt>
      <trkpt lat="42.86728" lon="0.61993">
        <ele>903.5</ele>
        <time>2017-12-03T10:18:51Z</time>
      </trkpt>
      <trkpt lat="42.86719" lon="0.61997">
        <ele>904.9</ele>
        <time>2017-12-03T10:19:10Z</time>
      </trkpt>
      <trkpt lat="42.86709" lon="0.62003">
        <ele>906.5</ele>
        <time>2017-12-03T10:19:27Z</time>
      </trkpt>
      <trkpt lat="42.86699" lon="0.62007">
        <ele>908</ele>
        <time>2017-12-03T10:19:43Z</time>
      </trkpt>
      <trkpt lat="42.86687" lon="0.62015">
        <ele>908.8</ele>
        <time>2017-12-03T10:20:02Z</time>
      </trkpt>
      <trkpt lat="42.86677" lon="0.62019">
        <ele>909.7</ele>
        <time>2017-12-03T10:20:18Z</time>
      </trkpt>
      <trkpt lat="42.86665" lon="0.62024">
        <ele>911</ele>
        <time>2017-12-03T10:20:36Z</time>
      </trkpt>
      <trkpt lat="42.86659" lon="0.62034">
        <ele>912.2</ele>
        <time>2017-12-03T10:21:01Z</time>
      </trkpt>
      <trkpt lat="42.8666" lon="0.62044">
        <ele>914.4</ele>
        <time>2017-12-03T10:21:22Z</time>
      </trkpt>
      <trkpt lat="42.86667" lon="0.62044">
        <ele>915.8</ele>
        <time>2017-12-03T10:23:04Z</time>
      </trkpt>
      <trkpt lat="42.86677" lon="0.62044">
        <ele>917</ele>
        <time>2017-12-03T10:23:17Z</time>
      </trkpt>
      <trkpt lat="42.86685" lon="0.62045">
        <ele>918.1</ele>
        <time>2017-12-03T10:23:29Z</time>
      </trkpt>
      <trkpt lat="42.86696" lon="0.62052">
        <ele>919.4</ele>
        <time>2017-12-03T10:23:42Z</time>
      </trkpt>
      <trkpt lat="42.86706" lon="0.62057">
        <ele>921.9</ele>
        <time>2017-12-03T10:23:56Z</time>
      </trkpt>
      <trkpt lat="42.86713" lon="0.62063">
        <ele>924.3</ele>
        <time>2017-12-03T10:24:10Z</time>
      </trkpt>
      <trkpt lat="42.86719" lon="0.62073">
        <ele>927.1</ele>
        <time>2017-12-03T10:24:29Z</time>
      </trkpt>
      <trkpt lat="42.86723" lon="0.62085">
        <ele>928.9</ele>
        <time>2017-12-03T10:24:45Z</time>
      </trkpt>
      <trkpt lat="42.86727" lon="0.62097">
        <ele>931.2</ele>
        <time>2017-12-03T10:25:01Z</time>
      </trkpt>
      <trkpt lat="42.8673" lon="0.62108">
        <ele>933.8</ele>
        <time>2017-12-03T10:25:20Z</time>
      </trkpt>
      <trkpt lat="42.86735" lon="0.62121">
        <ele>936.6</ele>
        <time>2017-12-03T10:25:40Z</time>
      </trkpt>
      <trkpt lat="42.86742" lon="0.62132">
        <ele>939.3</ele>
        <time>2017-12-03T10:25:56Z</time>
      </trkpt>
      <trkpt lat="42.8675" lon="0.62134">
        <ele>941.4</ele>
        <time>2017-12-03T10:26:14Z</time>
      </trkpt>
      <trkpt lat="42.86759" lon="0.62138">
        <ele>943.6</ele>
        <time>2017-12-03T10:26:29Z</time>
      </trkpt>
      <trkpt lat="42.86769" lon="0.62137">
        <ele>945.6</ele>
        <time>2017-12-03T10:26:46Z</time>
      </trkpt>
      <trkpt lat="42.86778" lon="0.62144">
        <ele>947.7</ele>
        <time>2017-12-03T10:27:04Z</time>
      </trkpt>
      <trkpt lat="42.86787" lon="0.6215">
        <ele>951.1</ele>
        <time>2017-12-03T10:27:27Z</time>
      </trkpt>
      <trkpt lat="42.86795" lon="0.62161">
        <ele>953.6</ele>
        <time>2017-12-03T10:27:46Z</time>
      </trkpt>
      <trkpt lat="42.86804" lon="0.62168">
        <ele>956</ele>
        <time>2017-12-03T10:28:02Z</time>
      </trkpt>
      <trkpt lat="42.86812" lon="0.62173">
        <ele>958.5</ele>
        <time>2017-12-03T10:28:20Z</time>
      </trkpt>
      <trkpt lat="42.86821" lon="0.62174">
        <ele>960.9</ele>
        <time>2017-12-03T10:28:39Z</time>
      </trkpt>
      <trkpt lat="42.86832" lon="0.62177">
        <ele>963.1</ele>
        <time>2017-12-03T10:28:57Z</time>
      </trkpt>
      <trkpt lat="42.86838" lon="0.62192">
        <ele>965.2</ele>
        <time>2017-12-03T10:29:15Z</time>
      </trkpt>
      <trkpt lat="42.86836" lon="0.62204">
        <ele>967.3</ele>
        <time>2017-12-03T10:29:32Z</time>
      </trkpt>
      <trkpt lat="42.86828" lon="0.62212">
        <ele>969.2</ele>
        <time>2017-12-03T10:29:48Z</time>
      </trkpt>
      <trkpt lat="42.86821" lon="0.6222">
        <ele>970.7</ele>
        <time>2017-12-03T10:30:03Z</time>
      </trkpt>
      <trkpt lat="42.86814" lon="0.6223">
        <ele>972.9</ele>
        <time>2017-12-03T10:30:20Z</time>
      </trkpt>
      <trkpt lat="42.86808" lon="0.62242">
        <ele>975.7</ele>
        <time>2017-12-03T10:30:42Z</time>
      </trkpt>
      <trkpt lat="42.86805" lon="0.62253">
        <ele>978.6</ele>
        <time>2017-12-03T10:31:00Z</time>
      </trkpt>
      <trkpt lat="42.86804" lon="0.62266">
        <ele>981.7</ele>
        <time>2017-12-03T10:31:21Z</time>
      </trkpt>
      <trkpt lat="42.86798" lon="0.62278">
        <ele>984.8</ele>
        <time>2017-12-03T10:31:39Z</time>
      </trkpt>
      <trkpt lat="42.86797" lon="0.62316">
        <ele>996.1</ele>
        <time>2017-12-03T10:32:44Z</time>
      </trkpt>
      <trkpt lat="42.86795" lon="0.62337">
        <ele>999.8</ele>
        <time>2017-12-03T10:33:03Z</time>
      </trkpt>
      <trkpt lat="42.86785" lon="0.62392">
        <ele>1011.4</ele>
        <time>2017-12-03T10:34:46Z</time>
      </trkpt>
      <trkpt lat="42.8678" lon="0.62471">
        <ele>1027.6</ele>
        <time>2017-12-03T10:37:03Z</time>
      </trkpt>
      <trkpt lat="42.86774" lon="0.62521">
        <ele>1039.4</ele>
        <time>2017-12-03T10:48:11Z</time>
      </trkpt>
      <trkpt lat="42.86776" lon="0.62556">
        <ele>1049.6</ele>
        <time>2017-12-03T10:50:56Z</time>
      </trkpt>
      <trkpt lat="42.86766" lon="0.62596">
        <ele>1065.5</ele>
        <time>2017-12-03T10:52:08Z</time>
      </trkpt>
      <trkpt lat="42.86768" lon="0.62608">
        <ele>1067.7</ele>
        <time>2017-12-03T10:52:24Z</time>
      </trkpt>
      <trkpt lat="42.86766" lon="0.6262">
        <ele>1070.4</ele>
        <time>2017-12-03T10:52:39Z</time>
      </trkpt>
      <trkpt lat="42.8677" lon="0.6263">
        <ele>1073.4</ele>
        <time>2017-12-03T10:52:54Z</time>
      </trkpt>
      <trkpt lat="42.86775" lon="0.62638">
        <ele>1076.5</ele>
        <time>2017-12-03T10:53:09Z</time>
      </trkpt>
      <trkpt lat="42.86777" lon="0.62651">
        <ele>1080.9</ele>
        <time>2017-12-03T10:53:28Z</time>
      </trkpt>
      <trkpt lat="42.86783" lon="0.62663">
        <ele>1084.6</ele>
        <time>2017-12-03T10:53:43Z</time>
      </trkpt>
      <trkpt lat="42.8679" lon="0.6267">
        <ele>1087.4</ele>
        <time>2017-12-03T10:53:59Z</time>
      </trkpt>
      <trkpt lat="42.86797" lon="0.62677">
        <ele>1090.3</ele>
        <time>2017-12-03T10:54:16Z</time>
      </trkpt>
      <trkpt lat="42.86803" lon="0.62685">
        <ele>1093.1</ele>
        <time>2017-12-03T10:54:35Z</time>
      </trkpt>
      <trkpt lat="42.8681" lon="0.62695">
        <ele>1095.7</ele>
        <time>2017-12-03T10:54:53Z</time>
      </trkpt>
      <trkpt lat="42.86813" lon="0.62707">
        <ele>1099.7</ele>
        <time>2017-12-03T10:55:10Z</time>
      </trkpt>
      <trkpt lat="42.86821" lon="0.62714">
        <ele>1104</ele>
        <time>2017-12-03T10:55:33Z</time>
      </trkpt>
      <trkpt lat="42.86821" lon="0.62718">
        <ele>1105.8</ele>
        <time>2017-12-03T10:57:41Z</time>
      </trkpt>
      <trkpt lat="42.86822" lon="0.62731">
        <ele>1107.6</ele>
        <time>2017-12-03T10:58:02Z</time>
      </trkpt>
      <trkpt lat="42.86826" lon="0.62742">
        <ele>1113.2</ele>
        <time>2017-12-03T10:58:36Z</time>
      </trkpt>
      <trkpt lat="42.8683" lon="0.62773">
        <ele>1123</ele>
        <time>2017-12-03T10:59:52Z</time>
      </trkpt>
      <trkpt lat="42.86831" lon="0.62785">
        <ele>1125.9</ele>
        <time>2017-12-03T11:00:28Z</time>
      </trkpt>
      <trkpt lat="42.86829" lon="0.62796">
        <ele>1129.7</ele>
        <time>2017-12-03T11:00:58Z</time>
      </trkpt>
      <trkpt lat="42.8683" lon="0.62808">
        <ele>1135.5</ele>
        <time>2017-12-03T11:01:40Z</time>
      </trkpt>
      <trkpt lat="42.86831" lon="0.62819">
        <ele>1138.6</ele>
        <time>2017-12-03T11:02:23Z</time>
      </trkpt>
      <trkpt lat="42.86828" lon="0.6283">
        <ele>1140.9</ele>
        <time>2017-12-03T11:02:53Z</time>
      </trkpt>
      <trkpt lat="42.86822" lon="0.62841">
        <ele>1145.7</ele>
        <time>2017-12-03T11:03:15Z</time>
      </trkpt>
      <trkpt lat="42.86818" lon="0.62851">
        <ele>1150.2</ele>
        <time>2017-12-03T11:03:37Z</time>
      </trkpt>
      <trkpt lat="42.86816" lon="0.62862">
        <ele>1153.7</ele>
        <time>2017-12-03T11:03:59Z</time>
      </trkpt>
      <trkpt lat="42.86814" lon="0.62875">
        <ele>1158.2</ele>
        <time>2017-12-03T11:04:26Z</time>
      </trkpt>
      <trkpt lat="42.86812" lon="0.62887">
        <ele>1163.2</ele>
        <time>2017-12-03T11:04:58Z</time>
      </trkpt>
      <trkpt lat="42.86817" lon="0.62897">
        <ele>1167.7</ele>
        <time>2017-12-03T11:05:29Z</time>
      </trkpt>
      <trkpt lat="42.86814" lon="0.62908">
        <ele>1170.9</ele>
        <time>2017-12-03T11:05:51Z</time>
      </trkpt>
      <trkpt lat="42.86819" lon="0.62915">
        <ele>1174.9</ele>
        <time>2017-12-03T11:06:18Z</time>
      </trkpt>
      <trkpt lat="42.86825" lon="0.62925">
        <ele>1182.2</ele>
        <time>2017-12-03T11:07:23Z</time>
      </trkpt>
      <trkpt lat="42.86834" lon="0.62924">
        <ele>1184.4</ele>
        <time>2017-12-03T11:07:55Z</time>
      </trkpt>
      <trkpt lat="42.86843" lon="0.6292">
        <ele>1185</ele>
        <time>2017-12-03T11:08:18Z</time>
      </trkpt>
      <trkpt lat="42.86851" lon="0.62922">
        <ele>1187.1</ele>
        <time>2017-12-03T11:08:43Z</time>
      </trkpt>
      <trkpt lat="42.86855" lon="0.62933">
        <ele>1191.6</ele>
        <time>2017-12-03T11:09:09Z</time>
      </trkpt>
      <trkpt lat="42.86854" lon="0.62943">
        <ele>1196</ele>
        <time>2017-12-03T11:09:36Z</time>
      </trkpt>
      <trkpt lat="42.86856" lon="0.62955">
        <ele>1202.2</ele>
        <time>2017-12-03T11:10:12Z</time>
      </trkpt>
      <trkpt lat="42.86852" lon="0.62974">
        <ele>1210.2</ele>
        <time>2017-12-03T11:11:03Z</time>
      </trkpt>
      <trkpt lat="42.86854" lon="0.62984">
        <ele>1213</ele>
        <time>2017-12-03T11:11:50Z</time>
      </trkpt>
      <trkpt lat="42.86857" lon="0.62995">
        <ele>1217.8</ele>
        <time>2017-12-03T11:12:22Z</time>
      </trkpt>
      <trkpt lat="42.86858" lon="0.63007">
        <ele>1223</ele>
        <time>2017-12-03T11:12:58Z</time>
      </trkpt>
      <trkpt lat="42.86864" lon="0.63016">
        <ele>1227.5</ele>
        <time>2017-12-03T11:13:27Z</time>
      </trkpt>
      <trkpt lat="42.86871" lon="0.63025">
        <ele>1232.6</ele>
        <time>2017-12-03T11:14:03Z</time>
      </trkpt>
      <trkpt lat="42.86876" lon="0.63034">
        <ele>1236.9</ele>
        <time>2017-12-03T11:14:32Z</time>
      </trkpt>
      <trkpt lat="42.8688" lon="0.63046">
        <ele>1241.2</ele>
        <time>2017-12-03T11:15:03Z</time>
      </trkpt>
      <trkpt lat="42.86886" lon="0.63054">
        <ele>1245.9</ele>
        <time>2017-12-03T11:15:33Z</time>
      </trkpt>
      <trkpt lat="42.86893" lon="0.63063">
        <ele>1249.8</ele>
        <time>2017-12-03T11:15:59Z</time>
      </trkpt>
      <trkpt lat="42.86897" lon="0.63073">
        <ele>1254.1</ele>
        <time>2017-12-03T11:16:30Z</time>
      </trkpt>
      <trkpt lat="42.86902" lon="0.63082">
        <ele>1257.7</ele>
        <time>2017-12-03T11:16:53Z</time>
      </trkpt>
      <trkpt lat="42.86905" lon="0.63094">
        <ele>1261.8</ele>
        <time>2017-12-03T11:17:18Z</time>
      </trkpt>
      <trkpt lat="42.86906" lon="0.63105">
        <ele>1265.7</ele>
        <time>2017-12-03T11:17:43Z</time>
      </trkpt>
      <trkpt lat="42.86906" lon="0.63117">
        <ele>1269.7</ele>
        <time>2017-12-03T11:18:12Z</time>
      </trkpt>
      <trkpt lat="42.86911" lon="0.63128">
        <ele>1273.7</ele>
        <time>2017-12-03T11:18:43Z</time>
      </trkpt>
      <trkpt lat="42.86913" lon="0.6314">
        <ele>1278.4</ele>
        <time>2017-12-03T11:19:13Z</time>
      </trkpt>
      <trkpt lat="42.86914" lon="0.63151">
        <ele>1282.2</ele>
        <time>2017-12-03T11:19:41Z</time>
      </trkpt>
      <trkpt lat="42.86916" lon="0.63163">
        <ele>1286</ele>
        <time>2017-12-03T11:20:11Z</time>
      </trkpt>
      <trkpt lat="42.8692" lon="0.63176">
        <ele>1291.3</ele>
        <time>2017-12-03T11:20:44Z</time>
      </trkpt>
      <trkpt lat="42.86924" lon="0.63188">
        <ele>1293.4</ele>
        <time>2017-12-03T11:21:00Z</time>
      </trkpt>
      <trkpt lat="42.86926" lon="0.63198">
        <ele>1295.9</ele>
        <time>2017-12-03T11:21:17Z</time>
      </trkpt>
      <trkpt lat="42.86928" lon="0.6321">
        <ele>1299.3</ele>
        <time>2017-12-03T11:21:37Z</time>
      </trkpt>
      <trkpt lat="42.8693" lon="0.63223">
        <ele>1301.7</ele>
        <time>2017-12-03T11:21:56Z</time>
      </trkpt>
      <trkpt lat="42.86934" lon="0.63234">
        <ele>1302.9</ele>
        <time>2017-12-03T11:22:11Z</time>
      </trkpt>
      <trkpt lat="42.86937" lon="0.63243">
        <ele>1304.8</ele>
        <time>2017-12-03T11:22:33Z</time>
      </trkpt>
      <trkpt lat="42.86942" lon="0.6325">
        <ele>1305.4</ele>
        <time>2017-12-03T11:23:14Z</time>
      </trkpt>
      <trkpt lat="42.86947" lon="0.63259">
        <ele>1306.6</ele>
        <time>2017-12-03T11:23:28Z</time>
      </trkpt>
      <trkpt lat="42.86946" lon="0.63269">
        <ele>1307.8</ele>
        <time>2017-12-03T11:24:01Z</time>
      </trkpt>
      <trkpt lat="42.86954" lon="0.63277">
        <ele>1309.6</ele>
        <time>2017-12-03T11:24:23Z</time>
      </trkpt>
      <trkpt lat="42.86962" lon="0.63283">
        <ele>1311.8</ele>
        <time>2017-12-03T11:24:41Z</time>
      </trkpt>
      <trkpt lat="42.86963" lon="0.63282">
        <ele>1314.5</ele>
        <time>2017-12-03T11:44:52Z</time>
      </trkpt>
      <trkpt lat="42.86977" lon="0.63285">
        <ele>1318.2</ele>
        <time>2017-12-03T11:46:58Z</time>
      </trkpt>
      <trkpt lat="42.86983" lon="0.63276">
        <ele>1320.7</ele>
        <time>2017-12-03T11:47:18Z</time>
      </trkpt>
      <trkpt lat="42.86993" lon="0.63275">
        <ele>1324.2</ele>
        <time>2017-12-03T11:47:40Z</time>
      </trkpt>
      <trkpt lat="42.87001" lon="0.63276">
        <ele>1327.3</ele>
        <time>2017-12-03T11:49:13Z</time>
      </trkpt>
      <trkpt lat="42.87008" lon="0.63279">
        <ele>1330.8</ele>
        <time>2017-12-03T11:49:34Z</time>
      </trkpt>
      <trkpt lat="42.87016" lon="0.63284">
        <ele>1334.2</ele>
        <time>2017-12-03T11:49:58Z</time>
      </trkpt>
      <trkpt lat="42.87025" lon="0.63289">
        <ele>1337.9</ele>
        <time>2017-12-03T11:50:23Z</time>
      </trkpt>
      <trkpt lat="42.87033" lon="0.63294">
        <ele>1341.8</ele>
        <time>2017-12-03T11:50:45Z</time>
      </trkpt>
      <trkpt lat="42.87041" lon="0.63298">
        <ele>1344.9</ele>
        <time>2017-12-03T11:51:05Z</time>
      </trkpt>
      <trkpt lat="42.87047" lon="0.63304">
        <ele>1348.5</ele>
        <time>2017-12-03T11:51:26Z</time>
      </trkpt>
      <trkpt lat="42.87051" lon="0.63315">
        <ele>1351.6</ele>
        <time>2017-12-03T11:51:50Z</time>
      </trkpt>
      <trkpt lat="42.87064" lon="0.63322">
        <ele>1359.9</ele>
        <time>2017-12-03T11:52:42Z</time>
      </trkpt>
      <trkpt lat="42.87072" lon="0.63323">
        <ele>1362.8</ele>
        <time>2017-12-03T11:52:59Z</time>
      </trkpt>
      <trkpt lat="42.87079" lon="0.63329">
        <ele>1367.9</ele>
        <time>2017-12-03T11:53:27Z</time>
      </trkpt>
      <trkpt lat="42.87089" lon="0.6334">
        <ele>1375.4</ele>
        <time>2017-12-03T11:54:21Z</time>
      </trkpt>
      <trkpt lat="42.87099" lon="0.63339">
        <ele>1378.9</ele>
        <time>2017-12-03T11:54:47Z</time>
      </trkpt>
      <trkpt lat="42.87107" lon="0.63345">
        <ele>1384.8</ele>
        <time>2017-12-03T11:55:38Z</time>
      </trkpt>
      <trkpt lat="42.87111" lon="0.63355">
        <ele>1388</ele>
        <time>2017-12-03T11:55:59Z</time>
      </trkpt>
      <trkpt lat="42.87124" lon="0.63362">
        <ele>1396.8</ele>
        <time>2017-12-03T11:56:54Z</time>
      </trkpt>
      <trkpt lat="42.87132" lon="0.63365">
        <ele>1401.2</ele>
        <time>2017-12-03T11:57:25Z</time>
      </trkpt>
      <trkpt lat="42.87137" lon="0.63375">
        <ele>1404.2</ele>
        <time>2017-12-03T11:57:47Z</time>
      </trkpt>
      <trkpt lat="42.87143" lon="0.6338">
        <ele>1407.4</ele>
        <time>2017-12-03T11:58:12Z</time>
      </trkpt>
      <trkpt lat="42.87148" lon="0.63383">
        <ele>1410.7</ele>
        <time>2017-12-03T11:58:40Z</time>
      </trkpt>
      <trkpt lat="42.87149" lon="0.63396">
        <ele>1413.4</ele>
        <time>2017-12-03T11:59:02Z</time>
      </trkpt>
      <trkpt lat="42.87155" lon="0.63405">
        <ele>1417.5</ele>
        <time>2017-12-03T11:59:31Z</time>
      </trkpt>
      <trkpt lat="42.87169" lon="0.63423">
        <ele>1425.1</ele>
        <time>2017-12-03T12:00:42Z</time>
      </trkpt>
      <trkpt lat="42.87175" lon="0.63434">
        <ele>1428.6</ele>
        <time>2017-12-03T12:01:07Z</time>
      </trkpt>
      <trkpt lat="42.8718" lon="0.63443">
        <ele>1430.8</ele>
        <time>2017-12-03T12:01:32Z</time>
      </trkpt>
      <trkpt lat="42.87183" lon="0.63455">
        <ele>1433.9</ele>
        <time>2017-12-03T12:02:00Z</time>
      </trkpt>
      <trkpt lat="42.87184" lon="0.6346">
        <ele>1437</ele>
        <time>2017-12-03T12:03:16Z</time>
      </trkpt>
      <trkpt lat="42.87185" lon="0.63465">
        <ele>1436.3</ele>
        <time>2017-12-03T12:05:27Z</time>
      </trkpt>
      <trkpt lat="42.87191" lon="0.63477">
        <ele>1438.5</ele>
        <time>2017-12-03T12:05:51Z</time>
      </trkpt>
      <trkpt lat="42.87194" lon="0.63489">
        <ele>1443.4</ele>
        <time>2017-12-03T12:06:26Z</time>
      </trkpt>
      <trkpt lat="42.872" lon="0.63505">
        <ele>1445.1</ele>
        <time>2017-12-03T12:06:46Z</time>
      </trkpt>
      <trkpt lat="42.87202" lon="0.6352">
        <ele>1447.9</ele>
        <time>2017-12-03T12:07:08Z</time>
      </trkpt>
      <trkpt lat="42.87202" lon="0.63533">
        <ele>1449.8</ele>
        <time>2017-12-03T12:07:29Z</time>
      </trkpt>
      <trkpt lat="42.87203" lon="0.63544">
        <ele>1451.9</ele>
        <time>2017-12-03T12:07:50Z</time>
      </trkpt>
      <trkpt lat="42.87209" lon="0.63556">
        <ele>1453.3</ele>
        <time>2017-12-03T12:08:09Z</time>
      </trkpt>
      <trkpt lat="42.87211" lon="0.63571">
        <ele>1452.5</ele>
        <time>2017-12-03T12:08:24Z</time>
      </trkpt>
      <trkpt lat="42.87217" lon="0.63585">
        <ele>1452.9</ele>
        <time>2017-12-03T12:08:44Z</time>
      </trkpt>
      <trkpt lat="42.87224" lon="0.636">
        <ele>1455.8</ele>
        <time>2017-12-03T12:09:05Z</time>
      </trkpt>
      <trkpt lat="42.87225" lon="0.63613">
        <ele>1458.9</ele>
        <time>2017-12-03T12:09:25Z</time>
      </trkpt>
      <trkpt lat="42.87231" lon="0.63626">
        <ele>1462.7</ele>
        <time>2017-12-03T12:09:51Z</time>
      </trkpt>
      <trkpt lat="42.8723" lon="0.63641">
        <ele>1464.8</ele>
        <time>2017-12-03T12:10:18Z</time>
      </trkpt>
      <trkpt lat="42.87232" lon="0.63653">
        <ele>1467.6</ele>
        <time>2017-12-03T12:10:37Z</time>
      </trkpt>
      <trkpt lat="42.87233" lon="0.63667">
        <ele>1470.3</ele>
        <time>2017-12-03T12:10:58Z</time>
      </trkpt>
      <trkpt lat="42.87233" lon="0.63676">
        <ele>1472.7</ele>
        <time>2017-12-03T12:11:28Z</time>
      </trkpt>
      <trkpt lat="42.87236" lon="0.63683">
        <ele>1476.6</ele>
        <time>2017-12-03T12:11:55Z</time>
      </trkpt>
      <trkpt lat="42.87237" lon="0.63695">
        <ele>1480</ele>
        <time>2017-12-03T12:12:19Z</time>
      </trkpt>
      <trkpt lat="42.87236" lon="0.63708">
        <ele>1483.5</ele>
        <time>2017-12-03T12:12:46Z</time>
      </trkpt>
      <trkpt lat="42.87237" lon="0.6372">
        <ele>1486.4</ele>
        <time>2017-12-03T12:13:10Z</time>
      </trkpt>
      <trkpt lat="42.87239" lon="0.63733">
        <ele>1488.7</ele>
        <time>2017-12-03T12:13:31Z</time>
      </trkpt>
      <trkpt lat="42.87244" lon="0.63743">
        <ele>1490.7</ele>
        <time>2017-12-03T12:14:09Z</time>
      </trkpt>
      <trkpt lat="42.8725" lon="0.6375">
        <ele>1493.6</ele>
        <time>2017-12-03T12:14:34Z</time>
      </trkpt>
      <trkpt lat="42.87251" lon="0.63763">
        <ele>1496.7</ele>
        <time>2017-12-03T12:14:56Z</time>
      </trkpt>
      <trkpt lat="42.87253" lon="0.63774">
        <ele>1500.1</ele>
        <time>2017-12-03T12:15:30Z</time>
      </trkpt>
      <trkpt lat="42.87255" lon="0.63789">
        <ele>1502</ele>
        <time>2017-12-03T12:15:51Z</time>
      </trkpt>
      <trkpt lat="42.87257" lon="0.63804">
        <ele>1504.3</ele>
        <time>2017-12-03T12:16:12Z</time>
      </trkpt>
      <trkpt lat="42.87258" lon="0.63816">
        <ele>1507.1</ele>
        <time>2017-12-03T12:16:34Z</time>
      </trkpt>
      <trkpt lat="42.87258" lon="0.6383">
        <ele>1509.9</ele>
        <time>2017-12-03T12:16:59Z</time>
      </trkpt>
      <trkpt lat="42.87258" lon="0.63843">
        <ele>1513</ele>
        <time>2017-12-03T12:17:22Z</time>
      </trkpt>
      <trkpt lat="42.87259" lon="0.63857">
        <ele>1516.1</ele>
        <time>2017-12-03T12:17:45Z</time>
      </trkpt>
      <trkpt lat="42.87261" lon="0.6387">
        <ele>1517.6</ele>
        <time>2017-12-03T12:18:05Z</time>
      </trkpt>
      <trkpt lat="42.87259" lon="0.63883">
        <ele>1519.2</ele>
        <time>2017-12-03T12:18:23Z</time>
      </trkpt>
      <trkpt lat="42.87258" lon="0.63896">
        <ele>1521.1</ele>
        <time>2017-12-03T12:18:43Z</time>
      </trkpt>
      <trkpt lat="42.87258" lon="0.63911">
        <ele>1523.5</ele>
        <time>2017-12-03T12:19:01Z</time>
      </trkpt>
      <trkpt lat="42.87264" lon="0.63925">
        <ele>1525.1</ele>
        <time>2017-12-03T12:19:21Z</time>
      </trkpt>
      <trkpt lat="42.87266" lon="0.63941">
        <ele>1527.4</ele>
        <time>2017-12-03T12:19:40Z</time>
      </trkpt>
      <trkpt lat="42.87266" lon="0.63954">
        <ele>1529.4</ele>
        <time>2017-12-03T12:19:59Z</time>
      </trkpt>
      <trkpt lat="42.87267" lon="0.63965">
        <ele>1532.6</ele>
        <time>2017-12-03T12:20:19Z</time>
      </trkpt>
      <trkpt lat="42.87269" lon="0.63979">
        <ele>1534.8</ele>
        <time>2017-12-03T12:20:42Z</time>
      </trkpt>
      <trkpt lat="42.87271" lon="0.63993">
        <ele>1537.5</ele>
        <time>2017-12-03T12:21:02Z</time>
      </trkpt>
      <trkpt lat="42.87272" lon="0.64006">
        <ele>1539.5</ele>
        <time>2017-12-03T12:21:21Z</time>
      </trkpt>
      <trkpt lat="42.87274" lon="0.64022">
        <ele>1541.9</ele>
        <time>2017-12-03T12:21:43Z</time>
      </trkpt>
      <trkpt lat="42.87276" lon="0.64036">
        <ele>1543.1</ele>
        <time>2017-12-03T12:22:03Z</time>
      </trkpt>
      <trkpt lat="42.87278" lon="0.64049">
        <ele>1545.5</ele>
        <time>2017-12-03T12:22:24Z</time>
      </trkpt>
      <trkpt lat="42.87277" lon="0.64065">
        <ele>1550.7</ele>
        <time>2017-12-03T12:24:38Z</time>
      </trkpt>
      <trkpt lat="42.87275" lon="0.64072">
        <ele>1551.3</ele>
        <time>2017-12-03T12:26:39Z</time>
      </trkpt>
      <trkpt lat="42.87274" lon="0.64087">
        <ele>1553.7</ele>
        <time>2017-12-03T12:26:59Z</time>
      </trkpt>
      <trkpt lat="42.87272" lon="0.64099">
        <ele>1556.6</ele>
        <time>2017-12-03T12:27:19Z</time>
      </trkpt>
      <trkpt lat="42.87276" lon="0.64112">
        <ele>1559.7</ele>
        <time>2017-12-03T12:27:38Z</time>
      </trkpt>
      <trkpt lat="42.87275" lon="0.64128">
        <ele>1560.5</ele>
        <time>2017-12-03T12:27:53Z</time>
      </trkpt>
      <trkpt lat="42.87276" lon="0.64145">
        <ele>1561</ele>
        <time>2017-12-03T12:28:10Z</time>
      </trkpt>
      <trkpt lat="42.87268" lon="0.64158">
        <ele>1561.1</ele>
        <time>2017-12-03T12:28:27Z</time>
      </trkpt>
      <trkpt lat="42.87259" lon="0.64167">
        <ele>1559.6</ele>
        <time>2017-12-03T12:28:39Z</time>
      </trkpt>
      <trkpt lat="42.87255" lon="0.64178">
        <ele>1559.4</ele>
        <time>2017-12-03T12:28:52Z</time>
      </trkpt>
      <trkpt lat="42.87259" lon="0.64191">
        <ele>1562.2</ele>
        <time>2017-12-03T12:29:13Z</time>
      </trkpt>
      <trkpt lat="42.87257" lon="0.64207">
        <ele>1563.1</ele>
        <time>2017-12-03T12:29:28Z</time>
      </trkpt>
      <trkpt lat="42.87254" lon="0.64221">
        <ele>1563.7</ele>
        <time>2017-12-03T12:29:43Z</time>
      </trkpt>
      <trkpt lat="42.87256" lon="0.64238">
        <ele>1565.6</ele>
        <time>2017-12-03T12:30:00Z</time>
      </trkpt>
      <trkpt lat="42.87256" lon="0.64252">
        <ele>1568.3</ele>
        <time>2017-12-03T12:30:21Z</time>
      </trkpt>
      <trkpt lat="42.87255" lon="0.64268">
        <ele>1571.1</ele>
        <time>2017-12-03T12:30:42Z</time>
      </trkpt>
      <trkpt lat="42.87254" lon="0.6428">
        <ele>1574.3</ele>
        <time>2017-12-03T12:31:07Z</time>
      </trkpt>
      <trkpt lat="42.87252" lon="0.64293">
        <ele>1575.9</ele>
        <time>2017-12-03T12:31:26Z</time>
      </trkpt>
      <trkpt lat="42.87249" lon="0.64305">
        <ele>1578</ele>
        <time>2017-12-03T12:31:47Z</time>
      </trkpt>
      <trkpt lat="42.87247" lon="0.64317">
        <ele>1580.6</ele>
        <time>2017-12-03T12:32:08Z</time>
      </trkpt>
      <trkpt lat="42.87242" lon="0.64328">
        <ele>1582.7</ele>
        <time>2017-12-03T12:32:26Z</time>
      </trkpt>
      <trkpt lat="42.87241" lon="0.64342">
        <ele>1583.6</ele>
        <time>2017-12-03T12:32:44Z</time>
      </trkpt>
      <trkpt lat="42.87245" lon="0.64355">
        <ele>1585.9</ele>
        <time>2017-12-03T12:33:16Z</time>
      </trkpt>
      <trkpt lat="42.87246" lon="0.6436">
        <ele>1587.7</ele>
        <time>2017-12-03T12:33:42Z</time>
      </trkpt>
      <trkpt lat="42.87247" lon="0.6437">
        <ele>1589.9</ele>
        <time>2017-12-03T12:38:30Z</time>
      </trkpt>
      <trkpt lat="42.87253" lon="0.6438">
        <ele>1591.2</ele>
        <time>2017-12-03T12:38:47Z</time>
      </trkpt>
      <trkpt lat="42.8726" lon="0.6439">
        <ele>1593.6</ele>
        <time>2017-12-03T12:39:06Z</time>
      </trkpt>
      <trkpt lat="42.87264" lon="0.64402">
        <ele>1596.8</ele>
        <time>2017-12-03T12:39:25Z</time>
      </trkpt>
      <trkpt lat="42.87267" lon="0.64413">
        <ele>1599.5</ele>
        <time>2017-12-03T12:39:46Z</time>
      </trkpt>
      <trkpt lat="42.87269" lon="0.64426">
        <ele>1602.7</ele>
        <time>2017-12-03T12:40:09Z</time>
      </trkpt>
      <trkpt lat="42.87271" lon="0.64438">
        <ele>1606.1</ele>
        <time>2017-12-03T12:40:35Z</time>
      </trkpt>
      <trkpt lat="42.87274" lon="0.64448">
        <ele>1608.9</ele>
        <time>2017-12-03T12:40:58Z</time>
      </trkpt>
      <trkpt lat="42.87276" lon="0.64458">
        <ele>1612.4</ele>
        <time>2017-12-03T12:41:23Z</time>
      </trkpt>
      <trkpt lat="42.87274" lon="0.6447">
        <ele>1615.1</ele>
        <time>2017-12-03T12:41:46Z</time>
      </trkpt>
      <trkpt lat="42.87278" lon="0.6448">
        <ele>1618.3</ele>
        <time>2017-12-03T12:42:13Z</time>
      </trkpt>
      <trkpt lat="42.87277" lon="0.64491">
        <ele>1621.6</ele>
        <time>2017-12-03T12:42:38Z</time>
      </trkpt>
      <trkpt lat="42.87276" lon="0.64503">
        <ele>1624.7</ele>
        <time>2017-12-03T12:43:03Z</time>
      </trkpt>
      <trkpt lat="42.8728" lon="0.64515">
        <ele>1627.2</ele>
        <time>2017-12-03T12:43:29Z</time>
      </trkpt>
      <trkpt lat="42.8728" lon="0.64527">
        <ele>1629.3</ele>
        <time>2017-12-03T12:43:49Z</time>
      </trkpt>
      <trkpt lat="42.87282" lon="0.6454">
        <ele>1631.7</ele>
        <time>2017-12-03T12:44:12Z</time>
      </trkpt>
      <trkpt lat="42.8728" lon="0.64552">
        <ele>1634.4</ele>
        <time>2017-12-03T12:44:36Z</time>
      </trkpt>
      <trkpt lat="42.87284" lon="0.64562">
        <ele>1637.2</ele>
        <time>2017-12-03T12:45:01Z</time>
      </trkpt>
      <trkpt lat="42.87281" lon="0.64573">
        <ele>1639.8</ele>
        <time>2017-12-03T12:45:26Z</time>
      </trkpt>
      <trkpt lat="42.87284" lon="0.64585">
        <ele>1642.7</ele>
        <time>2017-12-03T12:45:54Z</time>
      </trkpt>
      <trkpt lat="42.87282" lon="0.64596">
        <ele>1645.3</ele>
        <time>2017-12-03T12:46:21Z</time>
      </trkpt>
      <trkpt lat="42.87286" lon="0.64607">
        <ele>1648.2</ele>
        <time>2017-12-03T12:46:49Z</time>
      </trkpt>
      <trkpt lat="42.87285" lon="0.64618">
        <ele>1651</ele>
        <time>2017-12-03T12:47:14Z</time>
      </trkpt>
      <trkpt lat="42.87287" lon="0.64627">
        <ele>1654.2</ele>
        <time>2017-12-03T12:48:45Z</time>
      </trkpt>
      <trkpt lat="42.87283" lon="0.64634">
        <ele>1656.5</ele>
        <time>2017-12-03T12:51:30Z</time>
      </trkpt>
      <trkpt lat="42.87279" lon="0.64647">
        <ele>1659.6</ele>
        <time>2017-12-03T12:51:49Z</time>
      </trkpt>
      <trkpt lat="42.87273" lon="0.64659">
        <ele>1662.6</ele>
        <time>2017-12-03T12:52:08Z</time>
      </trkpt>
      <trkpt lat="42.87271" lon="0.64672">
        <ele>1665.8</ele>
        <time>2017-12-03T12:52:41Z</time>
      </trkpt>
      <trkpt lat="42.87272" lon="0.64683">
        <ele>1667.9</ele>
        <time>2017-12-03T12:53:29Z</time>
      </trkpt>
      <trkpt lat="42.87272" lon="0.64696">
        <ele>1670.2</ele>
        <time>2017-12-03T12:53:44Z</time>
      </trkpt>
      <trkpt lat="42.87273" lon="0.64708">
        <ele>1672.9</ele>
        <time>2017-12-03T12:54:01Z</time>
      </trkpt>
      <trkpt lat="42.87273" lon="0.6472">
        <ele>1675.9</ele>
        <time>2017-12-03T12:54:19Z</time>
      </trkpt>
      <trkpt lat="42.87273" lon="0.64732">
        <ele>1678.9</ele>
        <time>2017-12-03T12:54:40Z</time>
      </trkpt>
      <trkpt lat="42.87273" lon="0.64745">
        <ele>1681.4</ele>
        <time>2017-12-03T12:54:58Z</time>
      </trkpt>
      <trkpt lat="42.87274" lon="0.64757">
        <ele>1684.4</ele>
        <time>2017-12-03T12:55:20Z</time>
      </trkpt>
      <trkpt lat="42.87276" lon="0.64769">
        <ele>1688.2</ele>
        <time>2017-12-03T12:55:44Z</time>
      </trkpt>
      <trkpt lat="42.87278" lon="0.64781">
        <ele>1691</ele>
        <time>2017-12-03T12:56:04Z</time>
      </trkpt>
      <trkpt lat="42.87279" lon="0.64793">
        <ele>1694.6</ele>
        <time>2017-12-03T12:56:25Z</time>
      </trkpt>
      <trkpt lat="42.8728" lon="0.64805">
        <ele>1697.2</ele>
        <time>2017-12-03T12:56:45Z</time>
      </trkpt>
      <trkpt lat="42.87281" lon="0.64817">
        <ele>1700.8</ele>
        <time>2017-12-03T12:57:07Z</time>
      </trkpt>
      <trkpt lat="42.87282" lon="0.6483">
        <ele>1703.4</ele>
        <time>2017-12-03T12:57:26Z</time>
      </trkpt>
      <trkpt lat="42.87283" lon="0.64841">
        <ele>1706.3</ele>
        <time>2017-12-03T12:57:44Z</time>
      </trkpt>
      <trkpt lat="42.87284" lon="0.64855">
        <ele>1709.9</ele>
        <time>2017-12-03T12:59:02Z</time>
      </trkpt>
      <trkpt lat="42.87283" lon="0.64869">
        <ele>1713.2</ele>
        <time>2017-12-03T12:59:24Z</time>
      </trkpt>
      <trkpt lat="42.87283" lon="0.64881">
        <ele>1716</ele>
        <time>2017-12-03T12:59:46Z</time>
      </trkpt>
      <trkpt lat="42.87282" lon="0.64892">
        <ele>1718.4</ele>
        <time>2017-12-03T13:00:07Z</time>
      </trkpt>
      <trkpt lat="42.87282" lon="0.64903">
        <ele>1721</ele>
        <time>2017-12-03T13:00:31Z</time>
      </trkpt>
      <trkpt lat="42.8728" lon="0.64915">
        <ele>1724.3</ele>
        <time>2017-12-03T13:00:59Z</time>
      </trkpt>
      <trkpt lat="42.87279" lon="0.64927">
        <ele>1727.3</ele>
        <time>2017-12-03T13:01:25Z</time>
      </trkpt>
      <trkpt lat="42.87277" lon="0.6494">
        <ele>1730</ele>
        <time>2017-12-03T13:01:49Z</time>
      </trkpt>
      <trkpt lat="42.87274" lon="0.64951">
        <ele>1732.4</ele>
        <time>2017-12-03T13:02:16Z</time>
      </trkpt>
      <trkpt lat="42.87271" lon="0.64963">
        <ele>1734.7</ele>
        <time>2017-12-03T13:02:41Z</time>
      </trkpt>
      <trkpt lat="42.87268" lon="0.64974">
        <ele>1737.2</ele>
        <time>2017-12-03T13:03:01Z</time>
      </trkpt>
      <trkpt lat="42.87263" lon="0.64985">
        <ele>1739.5</ele>
        <time>2017-12-03T13:03:23Z</time>
      </trkpt>
      <trkpt lat="42.87259" lon="0.64995">
        <ele>1742.1</ele>
        <time>2017-12-03T13:03:48Z</time>
      </trkpt>
      <trkpt lat="42.87253" lon="0.65004">
        <ele>1744.8</ele>
        <time>2017-12-03T13:04:16Z</time>
      </trkpt>
      <trkpt lat="42.87245" lon="0.65008">
        <ele>1746.6</ele>
        <time>2017-12-03T13:04:38Z</time>
      </trkpt>
      <trkpt lat="42.87241" lon="0.65018">
        <ele>1750.6</ele>
        <time>2017-12-03T13:05:06Z</time>
      </trkpt>
      <trkpt lat="42.87242" lon="0.65027">
        <ele>1754.3</ele>
        <time>2017-12-03T13:05:50Z</time>
      </trkpt>
    </trkseg>
  </trk>
</gpx>